Time;durP1;ratioP1;P1;durP2;ratioP2;P2;SDS_P1;SDS_P2;PMS_P1;PMS_P2;Temp;Humidity;BMP_temperature;BMP_pressure;BME280_temperature;BME280_humidity;BME280_pressure;Samples;Min_cycle;Max_cycle;Signal;HPM_P1;HPM_P2
2021/06/22 00:00:30;;;;;;;0.10;0.10;;;;;;;21.65;67.70;98565.94;5094502;28;20020;-77
2021/06/22 00:02:56;;;;;;;0.10;0.10;;;;;;;21.64;67.48;98559.72;5114295;28;20027;-81
2021/06/22 00:05:22;;;;;;;0.10;0.10;;;;;;;21.70;67.41;98562.91;5080498;28;20545;-81
2021/06/22 00:07:51;;;;;;;0.10;0.10;;;;;;;21.72;67.49;98566.84;5114141;28;20089;-82
2021/06/22 00:10:18;;;;;;;0.10;0.10;;;;;;;21.72;67.50;98566.06;5096750;28;20027;-83
2021/06/22 00:12:43;;;;;;;0.15;0.15;;;;;;;21.67;67.27;98563.66;5096033;28;20402;-83
2021/06/22 00:15:13;;;;;;;0.00;0.00;;;;;;;21.58;67.42;98567.38;5113465;28;20034;-81
2021/06/22 00:17:39;;;;;;;0.00;0.00;;;;;;;21.53;67.29;98569.56;5080779;28;20450;-83
2021/06/22 00:20:07;;;;;;;0.05;0.05;;;;;;;21.47;67.34;98571.81;5092610;28;20028;-87
2021/06/22 00:22:33;;;;;;;0.00;0.00;;;;;;;21.40;67.22;98566.25;5096210;28;20034;-82
2021/06/22 00:24:59;;;;;;;0.00;0.00;;;;;;;21.39;67.42;98570.09;5086358;28;20048;-85
2021/06/22 00:27:24;;;;;;;0.00;0.00;;;;;;;21.33;67.75;98564.16;5089016;28;20042;-86
2021/06/22 00:29:50;;;;;;;0.00;0.00;;;;;;;21.25;67.76;98560.53;5094144;28;20059;-87
2021/06/22 00:32:17;;;;;;;0.03;0.03;;;;;;;21.24;68.20;98561.69;5090925;28;20123;-89
2021/06/22 00:34:47;;;;;;;0.00;0.00;;;;;;;21.22;68.20;98561.22;5083592;28;20035;-85
2021/06/22 00:37:17;;;;;;;0.00;0.00;;;;;;;21.20;68.43;98562.75;5096031;28;20558;-85
2021/06/22 00:39:43;;;;;;;0.00;0.00;;;;;;;21.19;68.38;98559.25;5093459;28;20023;-87
2021/06/22 00:42:10;;;;;;;0.00;0.00;;;;;;;21.20;68.56;98552.66;5096485;28;20118;-84
2021/06/22 00:44:48;;;;;;;0.10;0.10;;;;;;;21.21;68.65;98559.66;5089225;28;20034;-84
2021/06/22 00:47:16;;;;;;;0.10;0.10;;;;;;;21.14;68.40;98559.53;5095964;28;20547;-87
2021/06/22 00:49:42;;;;;;;0.10;0.10;;;;;;;21.02;68.95;98565.09;5096517;28;20666;-88
2021/06/22 00:52:08;;;;;;;0.00;0.00;;;;;;;20.89;69.63;98559.81;5096352;28;20032;-86
2021/06/22 00:54:36;;;;;;;0.00;0.00;;;;;;;20.81;69.94;98560.81;5090177;28;20402;-86
2021/06/22 00:57:02;;;;;;;;;;;;;;;20.77;70.24;98557.22;5092057;28;20144;-87
2021/06/22 00:59:29;;;;;;;0.20;0.20;;;;;;;20.69;70.56;98566.34;5089133;28;19951;-87
2021/06/22 01:01:55;;;;;;;0.00;0.00;;;;;;;20.66;70.80;98556.19;5093162;28;20114;-90
2021/06/22 01:04:20;;;;;;;0.00;0.00;;;;;;;20.64;71.03;98561.97;5095682;28;20458;-88
2021/06/22 01:06:45;;;;;;;0.00;0.00;;;;;;;20.62;71.32;98556.91;5095667;28;20108;-81
2021/06/22 01:09:11;;;;;;;0.00;0.00;;;;;;;20.63;71.17;98558.47;5109765;28;20460;-80
2021/06/22 01:11:39;;;;;;;0.00;0.00;;;;;;;20.64;71.42;98562.78;5102045;28;20031;-81
2021/06/22 01:14:05;;;;;;;0.10;0.10;;;;;;;20.70;71.22;98559.75;5111504;28;20023;-82
2021/06/22 01:16:30;;;;;;;0.00;0.00;;;;;;;20.71;71.02;98567.56;5095415;28;20028;-79
2021/06/22 01:18:58;;;;;;;0.00;0.00;;;;;;;20.69;71.08;98561.72;5110075;28;20035;-82
2021/06/22 01:21:24;;;;;;;0.00;0.00;;;;;;;20.72;70.85;98565.66;5093873;28;20054;-84
2021/06/22 01:23:50;;;;;;;0.00;0.00;;;;;;;20.74;70.90;98555.25;5078994;28;20119;-83
2021/06/22 01:26:15;;;;;;;0.00;0.00;;;;;;;20.77;70.84;98552.56;5094455;28;20144;-81
2021/06/22 01:28:42;;;;;;;0.00;0.00;;;;;;;20.81;70.85;98554.59;5078017;28;20478;-81
2021/06/22 01:31:11;;;;;;;0.00;0.00;;;;;;;20.85;70.77;98558.97;5089514;28;20032;-82
2021/06/22 01:33:38;;;;;;;0.00;0.00;;;;;;;20.86;70.78;98557.81;5090227;28;20036;-83
2021/06/22 01:36:04;;;;;;;0.00;0.00;;;;;;;20.88;70.43;98563.66;5075954;28;20046;-86
2021/06/22 01:38:29;;;;;;;0.05;0.05;;;;;;;20.90;70.28;98561.38;5091286;28;20111;-86
2021/06/22 01:40:54;;;;;;;0.00;0.00;;;;;;;20.89;70.28;98557.09;5094897;28;20039;-83
2021/06/22 01:43:24;;;;;;;0.00;0.00;;;;;;;20.89;70.28;98557.09;5087781;28;20031;-86
2021/06/22 01:45:50;;;;;;;0.00;0.00;;;;;;;20.89;70.20;98559.81;5088979;28;20130;-84
2021/06/22 01:48:15;;;;;;;0.05;0.05;;;;;;;20.90;70.21;98549.75;5074234;28;20111;-81
2021/06/22 01:50:41;;;;;;;0.00;0.00;;;;;;;20.88;70.09;98555.50;5075233;28;20119;-88
2021/06/22 01:53:07;;;;;;;0.10;0.10;;;;;;;20.84;70.33;98557.38;5082123;28;20445;-81
2021/06/22 01:55:37;;;;;;;0.00;0.00;;;;;;;20.75;70.31;98559.50;5090811;28;20042;-79
2021/06/22 01:58:05;;;;;;;0.10;0.10;;;;;;;20.74;70.39;98556.03;5112206;28;20023;-81
2021/06/22 02:00:31;;;;;;;0.10;0.10;;;;;;;20.70;70.61;98549.69;5085222;28;20035;-89
2021/06/22 02:02:56;;;;;;;0.00;0.00;;;;;;;20.67;70.41;98547.69;5104390;28;20028;-86
2021/06/22 02:05:22;;;;;;;0.10;0.10;;;;;;;20.67;70.89;98550.41;5108665;28;20035;-85
2021/06/22 02:07:48;;;;;;;0.10;0.10;;;;;;;20.66;71.01;98537.19;5093236;28;20523;-87
2021/06/22 02:10:13;;;;;;;0.03;0.03;;;;;;;20.66;70.94;98548.03;5099066;28;20054;-89
2021/06/22 02:12:40;;;;;;;0.10;0.10;;;;;;;20.63;71.25;98546.84;5084985;28;20122;-90
2021/06/22 02:15:07;;;;;;;0.00;0.00;;;;;;;20.63;71.25;98544.13;5075256;28;20443;-89
2021/06/22 02:17:32;;;;;;;0.00;0.00;;;;;;;20.57;71.35;98537.38;5074675;28;20027;-90
2021/06/22 02:19:58;;;;;;;0.10;0.10;;;;;;;20.57;71.41;98538.16;5083111;28;20027;-91
2021/06/22 02:22:23;;;;;;;0.00;0.00;;;;;;;20.55;71.62;98542.38;5091940;28;20045;-88
2021/06/22 02:24:49;;;;;;;0.00;0.00;;;;;;;20.58;71.68;98549.81;5092293;28;20040;-82
2021/06/22 02:27:40;;;;;;;0.10;0.10;;;;;;;20.60;71.49;98552.97;5092644;28;20024;-84
2021/06/22 02:30:10;;;;;;;0.10;0.10;;;;;;;20.57;71.55;98551.75;5083764;28;20067;-84
2021/06/22 02:32:35;;;;;;;0.00;0.00;;;;;;;20.57;71.82;98554.47;5091368;28;20055;-88
2021/06/22 02:35:01;;;;;;;0.00;0.00;;;;;;;20.59;71.83;98551.38;5090817;28;20123;-86
2021/06/22 02:37:26;;;;;;;0.00;0.00;;;;;;;20.57;71.68;98556.41;5088987;28;20039;-82
2021/06/22 02:39:52;;;;;;;0.43;0.43;;;;;;;20.56;71.74;98552.09;5109884;28;20034;-85
2021/06/22 02:42:18;;;;;;;0.10;0.10;;;;;;;20.46;72.43;98550.72;5090842;28;20040;-82
2021/06/22 02:44:44;;;;;;;0.00;0.00;;;;;;;20.39;72.46;98550.56;5090691;28;20101;-84
2021/06/22 02:47:09;;;;;;;0.10;0.10;;;;;;;20.29;73.18;98549.97;5102395;28;20152;-89
2021/06/22 02:49:35;;;;;;;0.00;0.00;;;;;;;20.20;73.51;98554.00;5111949;28;20035;-86
2021/06/22 02:52:00;;;;;;;0.00;0.00;;;;;;;20.11;73.91;98552.25;5107768;28;20046;-82
2021/06/22 02:54:26;;;;;;;0.10;0.10;;;;;;;20.06;74.44;98552.53;5089198;28;20035;-86
2021/06/22 02:56:52;;;;;;;0.08;0.08;;;;;;;20.05;74.45;98548.25;5095441;28;20039;-84
2021/06/22 02:59:18;;;;;;;0.08;0.08;;;;;;;20.07;74.71;98548.69;5092924;28;20023;-85
2021/06/22 03:01:43;;;;;;;0.00;0.00;;;;;;;20.17;74.71;98550.06;5103929;28;20027;-86
2021/06/22 03:04:09;;;;;;;0.38;0.38;;;;;;;20.34;74.15;98556.28;5085963;28;20031;-84
2021/06/22 03:06:34;;;;;;;0.08;0.08;;;;;;;20.56;73.75;98557.53;5094153;28;20058;-86
2021/06/22 03:08:59;;;;;;;0.10;0.10;;;;;;;20.81;72.79;98560.81;5092729;28;20031;-90
2021/06/22 03:11:25;;;;;;;0.20;0.13;;;;;;;21.11;71.91;98554.81;5091271;28;20063;-90
2021/06/22 03:13:51;;;;;;;0.03;0.03;;;;;;;21.46;71.00;98564.81;5082693;28;20024;-89
2021/06/22 03:16:16;;;;;;;0.00;0.00;;;;;;;21.77;69.35;98560.31;5083897;28;20027;-89
2021/06/22 03:18:41;;;;;;;0.05;0.05;;;;;;;22.08;68.14;98561.19;5092576;28;20039;-88
2021/06/22 03:21:07;;;;;;;0.00;0.00;;;;;;;22.41;67.25;98572.59;5089565;28;20091;-88
2021/06/22 03:23:32;;;;;;;0.00;0.00;;;;;;;22.80;66.04;98578.63;5084984;28;20122;-89
2021/06/22 03:25:58;;;;;;;0.00;0.00;;;;;;;23.26;64.74;98576.84;5112043;28;20447;-88
2021/06/22 03:28:24;;;;;;;0.10;0.10;;;;;;;23.70;63.71;98583.53;5089864;28;20051;-92
2021/06/22 03:30:49;;;;;;;0.00;0.00;;;;;;;24.14;61.61;98583.56;5078681;28;20094;-89
2021/06/22 03:33:16;;;;;;;0.00;0.00;;;;;;;24.48;60.15;98587.31;5097540;28;20114;-90
2021/06/22 03:35:41;;;;;;;0.10;0.10;;;;;;;24.75;59.19;98594.09;5094291;28;20027;-91
2021/06/22 03:38:07;;;;;;;0.00;0.00;;;;;;;25.05;58.32;98589.56;5092892;28;20405;-88
2021/06/22 03:40:32;;;;;;;0.10;0.10;;;;;;;25.26;57.19;98592.38;5096675;28;20039;-87
2021/06/22 03:42:58;;;;;;;0.22;0.22;;;;;;;25.46;56.53;98602.25;5093613;28;20032;-87
2021/06/22 03:45:24;;;;;;;0.00;0.00;;;;;;;25.58;56.06;98590.91;5095677;28;20035;-85
2021/06/22 03:47:50;;;;;;;0.10;0.10;;;;;;;25.72;55.41;98604.63;5095783;28;20117;-85
2021/06/22 03:50:16;;;;;;;0.00;0.00;;;;;;;25.78;55.60;98610.53;5102413;28;20036;-84
2021/06/22 03:52:41;;;;;;;0.05;0.05;;;;;;;26.08;54.75;98617.59;5084702;28;20082;-88
2021/06/22 03:55:26;;;;;;;0.00;0.00;;;;;;;26.31;54.06;98603.50;5079555;28;20028;-87
2021/06/22 03:57:57;;;;;;;0.00;0.00;;;;;;;26.70;52.90;98610.09;5092480;28;20055;-87
2021/06/22 04:00:23;;;;;;;0.00;0.00;;;;;;;26.88;52.15;98612.84;5083428;28;20110;-84
2021/06/22 04:02:50;;;;;;;0.10;0.10;;;;;;;27.00;51.53;98601.41;5092985;28;20119;-82
2021/06/22 04:05:16;;;;;;;0.00;0.00;;;;;;;27.26;51.35;98613.06;5115173;28;20063;-84
2021/06/22 04:07:42;;;;;;;0.00;0.00;;;;;;;27.51;50.98;98608.66;5096460;28;20524;-83
2021/06/22 04:10:08;;;;;;;0.00;0.00;;;;;;;27.76;49.98;98614.00;5090985;28;20024;-81
2021/06/22 04:12:34;;;;;;;0.10;0.10;;;;;;;27.96;49.44;98620.53;5078201;28;20055;-81
2021/06/22 04:14:59;;;;;;;0.00;0.00;;;;;;;28.23;48.53;98613.66;5093403;28;20490;-84
2021/06/22 04:17:24;;;;;;;0.05;0.05;;;;;;;28.46;48.77;98615.81;5095090;28;20051;-85
2021/06/22 04:19:50;;;;;;;0.00;0.00;;;;;;;28.80;47.28;98615.09;5093786;28;20096;-83
2021/06/22 04:22:15;;;;;;;0.08;0.08;;;;;;;29.09;46.95;98614.78;5101258;28;20024;-80
2021/06/22 04:24:41;;;;;;;0.00;0.00;;;;;;;29.46;46.72;98613.13;5104945;27;20043;-86
2021/06/22 04:27:07;;;;;;;0.00;0.00;;;;;;;29.89;46.05;98610.94;5109124;27;20036;-86
2021/06/22 04:29:32;;;;;;;0.00;0.00;;;;;;;30.30;44.49;98615.44;5079941;28;20043;-88
2021/06/22 04:31:57;;;;;;;0.00;0.00;;;;;;;30.67;43.69;98613.59;5109739;28;20047;-88
2021/06/22 04:34:23;;;;;;;0.00;0.00;;;;;;;31.02;43.02;98611.34;5077281;28;20028;-89
2021/06/22 04:36:49;;;;;;;0.00;0.00;;;;;;;31.42;42.39;98622.38;5075675;28;20126;-89
2021/06/22 04:39:14;;;;;;;0.00;0.00;;;;;;;31.78;41.46;98615.28;5075518;28;20038;-88
2021/06/22 04:41:40;;;;;;;0.00;0.00;;;;;;;32.14;41.00;98611.66;5074999;28;20047;-89
2021/06/22 04:44:06;;;;;;;0.22;0.22;;;;;;;32.50;39.70;98616.28;5077265;28;20025;-88
2021/06/22 04:46:31;;;;;;;0.00;0.00;;;;;;;32.75;39.20;98625.13;5075706;28;20039;-88
2021/06/22 04:48:57;;;;;;;0.00;0.00;;;;;;;32.95;38.09;98617.47;5075585;28;20134;-87
2021/06/22 04:51:23;;;;;;;0.00;0.00;;;;;;;33.08;38.40;98620.28;5075383;28;20537;-87
2021/06/22 04:53:48;;;;;;;0.00;0.00;;;;;;;33.26;38.28;98630.03;5075483;28;20039;-87
2021/06/22 04:56:14;;;;;;;0.00;0.00;;;;;;;33.37;38.02;98638.84;5075809;28;20398;-89
2021/06/22 04:58:40;;;;;;;0.00;0.00;;;;;;;33.54;37.45;98642.28;5093411;28;20068;-87
2021/06/22 05:01:06;;;;;;;0.00;0.00;;;;;;;33.65;37.63;98633.66;5075595;28;20024;-90
2021/06/22 05:03:34;;;;;;;0.00;0.00;;;;;;;33.74;37.31;98624.66;5075177;28;20116;-89
2021/06/22 05:05:59;;;;;;;0.00;0.00;;;;;;;33.86;36.78;98623.88;5075551;28;20435;-89
2021/06/22 05:08:25;;;;;;;0.00;0.00;;;;;;;34.00;36.40;98634.53;5075482;28;20039;-88
2021/06/22 05:10:51;;;;;;;0.00;0.00;;;;;;;34.11;36.42;98627.88;5075537;28;20032;-87
2021/06/22 05:13:16;;;;;;;0.00;0.00;;;;;;;34.23;36.64;98623.50;5075954;28;20024;-87
2021/06/22 05:15:42;;;;;;;0.00;0.00;;;;;;;34.36;36.04;98634.59;5076066;28;20027;-88
2021/06/22 05:18:07;;;;;;;0.00;0.00;;;;;;;34.53;35.89;98633.19;5075305;28;20027;-90
2021/06/22 05:20:33;;;;;;;0.28;0.28;;;;;;;34.70;35.61;98633.03;5074966;28;20024;-87
2021/06/22 05:22:58;;;;;;;0.00;0.00;;;;;;;34.84;35.20;98626.97;5077189;28;20467;-87
2021/06/22 05:25:24;;;;;;;0.00;0.00;;;;;;;35.06;35.32;98643.66;5078078;28;20407;-89
2021/06/22 05:27:49;;;;;;;0.20;0.20;;;;;;;35.23;35.06;98644.22;5093288;28;20526;-89
2021/06/22 05:30:15;;;;;;;0.00;0.00;;;;;;;35.38;34.98;98638.91;5074785;28;20475;-88
2021/06/22 05:32:40;;;;;;;0.00;0.00;;;;;;;35.50;34.33;98634.50;5074445;28;20027;-89
2021/06/22 05:35:06;;;;;;;0.00;0.00;;;;;;;35.52;34.10;98639.59;5074844;28;20028;-89
2021/06/22 05:37:32;;;;;;;0.10;0.10;;;;;;;35.60;33.86;98643.66;5074678;28;20043;-89
2021/06/22 05:39:57;;;;;;;0.00;0.00;;;;;;;35.74;34.16;98653.41;5074807;28;20078;-88
2021/06/22 05:42:23;;;;;;;0.10;0.10;;;;;;;35.88;33.77;98654.88;5074891;28;20056;-89
2021/06/22 05:44:48;;;;;;;0.00;0.00;;;;;;;35.95;33.83;98651.03;5074634;28;20024;-87
2021/06/22 05:47:14;;;;;;;0.28;0.28;;;;;;;36.12;33.45;98652.34;5074746;28;20360;-88
2021/06/22 05:49:39;;;;;;;0.00;0.00;;;;;;;36.32;33.57;98651.13;5074334;28;20024;-88
2021/06/22 05:52:05;;;;;;;0.20;0.20;;;;;;;36.51;32.88;98657.50;5074514;28;20450;-89
2021/06/22 05:54:30;;;;;;;0.00;0.00;;;;;;;36.73;32.60;98665.72;5073634;28;20024;-89
2021/06/22 05:56:56;;;;;;;0.00;0.00;;;;;;;36.92;32.61;98654.59;5074283;28;20020;-88
2021/06/22 05:59:21;;;;;;;0.00;0.00;;;;;;;37.03;31.77;98656.88;5074564;28;20027;-89
2021/06/22 06:01:47;;;;;;;0.00;0.00;;;;;;;37.11;31.89;98644.94;5073986;28;20032;-88
2021/06/22 06:04:12;;;;;;;0.00;0.00;;;;;;;37.24;31.69;98657.91;5074033;28;20074;-89
2021/06/22 06:06:37;;;;;;;0.00;0.00;;;;;;;37.33;31.10;98650.31;5073939;28;20026;-89
2021/06/22 06:09:03;;;;;;;0.00;0.00;;;;;;;37.31;30.83;98654.81;5074486;28;20107;-89
2021/06/22 06:11:29;;;;;;;0.00;0.00;;;;;;;37.33;31.00;98660.69;5074167;28;20177;-88
2021/06/22 06:13:54;;;;;;;0.00;0.00;;;;;;;37.36;31.01;98653.44;5073941;28;20020;-89
2021/06/22 06:16:20;;;;;;;0.00;0.00;;;;;;;37.39;31.26;98655.25;5074070;28;20031;-87
2021/06/22 06:18:46;;;;;;;0.00;0.00;;;;;;;37.46;31.18;98649.34;5073761;28;20483;-86
2021/06/22 06:21:11;;;;;;;0.10;0.10;;;;;;;37.47;31.12;98646.09;5074226;28;20085;-85
2021/06/22 06:23:40;;;;;;;0.10;0.10;;;;;;;37.45;31.03;98645.81;5073808;28;20036;-87
2021/06/22 06:26:06;;;;;;;0.00;0.00;;;;;;;37.45;31.01;98651.38;5073827;28;20462;-85
2021/06/22 06:28:36;;;;;;;0.10;0.10;;;;;;;37.30;31.02;98650.47;5073739;28;20028;-88
2021/06/22 06:31:01;;;;;;;0.00;0.00;;;;;;;37.22;31.03;98652.03;5073737;28;20028;-88
2021/06/22 06:33:27;;;;;;;0.00;0.00;;;;;;;37.05;30.65;98654.38;5073849;28;20070;-88
2021/06/22 06:35:54;;;;;;;0.00;0.00;;;;;;;36.88;31.24;98648.38;5073550;28;20021;-87
2021/06/22 06:38:19;;;;;;;;;;;;;;;36.79;31.56;98663.06;5074058;28;20020;-87
2021/06/22 06:40:44;;;;;;;0.00;0.00;;;;;;;36.44;32.05;98661.38;5073361;28;20006;-87
2021/06/22 06:43:10;;;;;;;0.00;0.00;;;;;;;36.34;32.48;98665.34;5073673;28;20494;-88
2021/06/22 06:45:36;;;;;;;0.00;0.00;;;;;;;36.01;32.31;98671.47;5073619;28;20024;-87
2021/06/22 06:48:01;;;;;;;0.30;0.30;;;;;;;35.72;33.24;98669.81;5092205;28;20557;-87
2021/06/22 06:50:27;;;;;;;0.10;0.10;;;;;;;35.62;33.71;98671.00;5091638;28;20047;-88
2021/06/22 06:52:52;;;;;;;0.47;0.47;;;;;;;35.49;33.75;98666.31;5073123;28;20054;-87
2021/06/22 06:55:27;;;;;;;0.00;0.00;;;;;;;35.36;33.77;98671.16;5073775;28;20114;-86
2021/06/22 06:57:59;;;;;;;0.00;0.00;;;;;;;35.23;33.88;98660.88;5073118;28;20036;-88
2021/06/22 07:00:25;;;;;;;0.00;0.00;;;;;;;35.07;34.48;98663.88;5073490;28;20119;-87
2021/06/22 07:02:51;;;;;;;0.00;0.00;;;;;;;34.74;33.57;98667.00;5073161;28;20038;-88
2021/06/22 07:05:17;;;;;;;0.00;0.00;;;;;;;34.38;35.21;98660.69;5073131;28;20114;-87
2021/06/22 07:07:43;;;;;;;0.00;0.00;;;;;;;34.16;35.54;98653.03;5073106;28;20039;-88
2021/06/22 07:10:09;;;;;;;0.00;0.00;;;;;;;33.86;36.24;98653.63;5073316;28;20115;-87
2021/06/22 07:12:35;;;;;;;0.00;0.00;;;;;;;33.62;36.27;98651.19;5073026;28;20035;-87
2021/06/22 07:15:00;;;;;;;1.75;0.40;;;;;;;33.49;37.25;98649.16;5073111;28;20258;-87
2021/06/22 07:17:26;;;;;;;0.00;0.00;;;;;;;33.30;37.02;98644.59;5073213;28;20028;-88
2021/06/22 07:19:51;;;;;;;0.00;0.00;;;;;;;33.10;37.18;98647.53;5073109;28;20108;-88
2021/06/22 07:22:17;;;;;;;0.03;0.03;;;;;;;33.01;37.84;98651.72;5091509;28;20519;-89
2021/06/22 07:24:42;;;;;;;0.00;0.00;;;;;;;32.89;37.98;98649.69;5072586;28;20113;-89
2021/06/22 07:27:08;;;;;;;0.03;0.03;;;;;;;32.83;38.37;98652.19;5073121;28;20024;-88
2021/06/22 07:29:33;;;;;;;0.00;0.00;;;;;;;32.80;38.16;98657.84;5091026;28;20020;-88
2021/06/22 07:31:59;;;;;;;0.00;0.00;;;;;;;32.73;38.53;98653.25;5072870;28;20031;-87
2021/06/22 07:34:24;;;;;;;0.00;0.00;;;;;;;32.67;39.35;98649.47;5091325;28;20119;-88
2021/06/22 07:36:49;;;;;;;0.00;0.00;;;;;;;32.49;38.23;98649.94;5073108;28;20024;-88
2021/06/22 07:39:15;;;;;;;0.05;0.05;;;;;;;32.30;38.61;98663.44;5072991;28;20035;-87
2021/06/22 07:41:40;;;;;;;0.00;0.00;;;;;;;32.02;39.68;98660.13;5072670;28;20024;-87
2021/06/22 07:44:06;;;;;;;0.10;0.10;;;;;;;31.81;40.94;98668.91;5072675;28;20111;-87
2021/06/22 07:46:31;;;;;;;0.10;0.10;;;;;;;31.76;40.84;98668.22;5072565;28;20434;-88
2021/06/22 07:48:57;;;;;;;0.10;0.10;;;;;;;31.72;40.62;98669.53;5074087;28;20115;-87
2021/06/22 07:51:22;;;;;;;0.00;0.00;;;;;;;31.48;40.49;98669.59;5072620;28;20027;-90
2021/06/22 07:53:48;;;;;;;0.00;0.00;;;;;;;31.33;40.69;98680.19;5073024;28;20058;-87
2021/06/22 07:56:13;;;;;;;0.10;0.10;;;;;;;31.30;41.91;98681.81;5073594;28;20028;-88
2021/06/22 07:58:39;;;;;;;0.10;0.10;;;;;;;31.34;41.29;98680.97;5090562;28;20103;-88
2021/06/22 08:01:04;;;;;;;0.00;0.00;;;;;;;31.34;40.73;98689.25;5072521;28;20031;-87
2021/06/22 08:03:29;;;;;;;0.00;0.00;;;;;;;31.35;41.57;98688.81;5082476;28;20111;-89
2021/06/22 08:05:55;;;;;;;0.00;0.00;;;;;;;31.39;41.87;98689.50;5072481;28;20122;-87
2021/06/22 08:08:22;;;;;;;0.00;0.00;;;;;;;31.38;41.66;98682.44;5072450;28;20419;-87
2021/06/22 08:10:50;;;;;;;0.22;0.10;;;;;;;31.30;42.18;98681.03;5072449;28;20020;-86
2021/06/22 08:13:17;;;;;;;0.00;0.00;;;;;;;31.17;41.31;98682.88;5072494;28;20028;-86
2021/06/22 08:15:43;;;;;;;0.10;0.10;;;;;;;30.95;40.89;98684.03;5090142;28;20098;-86
2021/06/22 08:18:09;;;;;;;0.13;0.13;;;;;;;30.74;41.42;98679.69;5075483;28;20482;-87
2021/06/22 08:20:37;;;;;;;0.28;0.28;;;;;;;30.57;42.09;98678.06;5076084;28;20059;-88
2021/06/22 08:23:03;;;;;;;0.80;0.55;;;;;;;30.52;42.82;98673.00;5075787;28;20036;-86
2021/06/22 08:25:29;;;;;;;0.10;0.10;;;;;;;30.43;42.67;98670.75;5094149;28;20051;-86
2021/06/22 08:27:55;;;;;;;0.00;0.00;;;;;;;30.35;43.67;98676.38;5075395;28;20024;-86
2021/06/22 08:30:23;;;;;;;0.00;0.00;;;;;;;30.41;44.20;98684.97;5076043;28;20043;-87
2021/06/22 08:32:48;;;;;;;0.00;0.00;;;;;;;30.47;43.30;98677.78;5075609;28;20391;-88
2021/06/22 08:35:14;;;;;;;0.00;0.00;;;;;;;30.50;43.34;98679.72;5076513;28;20039;-88
2021/06/22 08:37:39;;;;;;;0.00;0.00;;;;;;;30.64;42.51;98684.22;5095359;28;20102;-89
2021/06/22 08:40:07;;;;;;;0.00;0.00;;;;;;;30.76;42.71;98682.03;5076804;28;20036;-88
2021/06/22 08:42:36;;;;;;;0.08;0.08;;;;;;;30.77;43.10;98678.06;5076027;28;20028;-87
2021/06/22 08:45:03;;;;;;;0.00;0.00;;;;;;;30.81;42.95;98684.31;5075611;28;20131;-88
2021/06/22 08:47:29;;;;;;;0.00;0.00;;;;;;;30.85;42.60;98678.72;5075856;28;20225;-87
2021/06/22 08:49:56;;;;;;;0.17;0.17;;;;;;;30.82;43.26;98672.84;5075379;28;20044;-87
2021/06/22 08:52:26;;;;;;;;;;;;;;;30.88;43.70;98675.88;5075909;28;20031;-86
2021/06/22 08:54:53;;;;;;;0.10;0.10;;;;;;;30.86;42.51;98678.31;5075433;28;19912;-86
2021/06/22 08:57:20;;;;;;;0.08;0.08;;;;;;;30.90;42.63;98676.25;5075363;28;20035;-87
2021/06/22 08:59:46;;;;;;;0.10;0.10;;;;;;;30.91;42.33;98677.03;5093366;28;20054;-87
2021/06/22 09:02:13;;;;;;;0.00;0.00;;;;;;;30.91;41.04;98690.84;5075416;28;20025;-88
2021/06/22 09:04:38;;;;;;;1.13;0.50;;;;;;;30.98;41.28;98687.94;5075362;28;20043;-87
2021/06/22 09:07:04;;;;;;;0.00;0.00;;;;;;;31.03;40.39;98687.47;5093010;28;20396;-87
2021/06/22 09:09:37;;;;;;;0.00;0.00;;;;;;;31.10;41.93;98692.06;5075429;28;20032;-88
2021/06/22 09:12:04;;;;;;;0.08;0.08;;;;;;;31.13;40.70;98680.97;5074599;28;20035;-89
2021/06/22 09:14:35;;;;;;;0.00;0.00;;;;;;;31.09;40.63;98682.22;5075177;28;20028;-87
2021/06/22 09:17:02;;;;;;;0.20;0.20;;;;;;;31.08;40.89;98684.22;5074796;28;20454;-88
2021/06/22 09:19:28;;;;;;;0.00;0.00;;;;;;;31.10;40.98;98690.13;5074987;28;20095;-87
2021/06/22 09:21:53;;;;;;;0.00;0.00;;;;;;;31.16;42.09;98692.38;5074836;28;20119;-88
2021/06/22 09:24:21;;;;;;;0.00;0.00;;;;;;;31.19;39.85;98672.97;5074611;28;20040;-87
2021/06/22 09:26:48;;;;;;;;;;;;;;;31.18;40.17;98679.69;5074981;28;20505;-87
2021/06/22 09:29:15;;;;;;;0.00;0.00;;;;;;;31.15;40.78;98669.47;5073788;28;19935;-88
2021/06/22 09:31:58;;;;;;;0.00;0.00;;;;;;;31.15;41.73;98672.25;5074791;28;20059;-87
2021/06/22 09:34:25;;;;;;;0.00;0.00;;;;;;;31.19;41.62;98667.44;5074610;28;20020;-87
2021/06/22 09:36:53;;;;;;;0.00;0.00;;;;;;;31.25;41.79;98671.25;5074441;28;20032;-87
2021/06/22 09:39:21;;;;;;;0.10;0.10;;;;;;;31.22;40.20;98671.34;5074431;28;20024;-87
2021/06/22 09:41:47;;;;;;;;;;;;;;;31.27;40.65;98673.59;5074771;28;20422;-88
2021/06/22 09:44:25;;;;;;;0.03;0.03;;;;;;;31.32;40.21;98662.03;5074381;28;19912;-87
2021/06/22 09:46:53;;;;;;;0.00;0.00;;;;;;;31.32;41.03;98658.50;5074208;28;20590;-86
2021/06/22 09:49:23;;;;;;;0.10;0.10;;;;;;;31.40;39.84;98659.91;5074426;28;20394;-87
2021/06/22 09:52:10;;;;;;;0.00;0.00;;;;;;;31.42;40.16;98666.56;5074154;28;20031;-86
2021/06/22 09:54:41;;;;;;;0.28;0.28;;;;;;;31.31;39.60;98657.75;5074357;28;20039;-85
2021/06/22 09:57:15;;;;;;;0.00;0.00;;;;;;;31.22;39.58;98652.78;5073962;28;20032;-87
2021/06/22 09:59:55;;;;;;;0.00;0.00;;;;;;;31.22;41.49;98657.53;5074210;28;20463;-86
2021/06/22 10:02:23;;;;;;;0.00;0.00;;;;;;;31.17;40.58;98653.28;5092349;28;20562;-88
2021/06/22 10:04:51;;;;;;;2.03;0.22;;;;;;;31.10;39.29;98650.66;5092273;28;20035;-86
2021/06/22 10:07:19;;;;;;;0.00;0.00;;;;;;;30.93;39.65;98653.31;5074121;28;20020;-87
2021/06/22 10:09:54;;;;;;;0.08;0.08;;;;;;;30.91;41.60;98652.97;5074176;28;20119;-87
2021/06/22 10:12:21;;;;;;;0.00;0.00;;;;;;;30.95;39.54;98647.38;5074067;28;20127;-86
2021/06/22 10:14:51;;;;;;;0.05;0.05;;;;;;;30.98;39.26;98650.06;5092053;28;20040;-84
2021/06/22 10:17:21;;;;;;;0.10;0.10;;;;;;;30.90;39.27;98650.63;5073899;28;20115;-83
2021/06/22 10:20:01;;;;;;;0.10;0.10;;;;;;;30.75;38.92;98644.59;5073736;28;20407;-83
2021/06/22 10:22:31;;;;;;;0.55;0.55;;;;;;;30.62;39.51;98644.44;5073654;28;20093;-85
2021/06/22 10:24:57;;;;;;;0.10;0.10;;;;;;;30.57;39.86;98647.69;5073139;28;20075;-85
2021/06/22 10:27:23;;;;;;;0.00;0.00;;;;;;;30.56;40.13;98652.41;5073699;28;20399;-86
2021/06/22 10:29:51;;;;;;;0.35;0.35;;;;;;;30.59;41.66;98654.34;5073423;28;20032;-86
2021/06/22 10:32:19;;;;;;;0.08;0.08;;;;;;;30.60;41.05;98644.09;5073577;28;20055;-88
2021/06/22 10:34:46;;;;;;;1.13;0.10;;;;;;;30.70;40.97;98650.59;5073372;28;20035;-88
2021/06/22 10:37:14;;;;;;;0.00;0.00;;;;;;;30.78;40.85;98649.28;5073287;28;20094;-88
2021/06/22 10:39:52;;;;;;;0.00;0.00;;;;;;;30.87;41.11;98651.47;5073192;28;20028;-87
2021/06/22 10:42:18;;;;;;;0.15;0.13;;;;;;;30.96;39.78;98649.69;5073686;28;20394;-85
2021/06/22 10:45:16;;;;;;;0.03;0.03;;;;;;;30.90;40.53;98642.34;5073492;28;20024;-89
2021/06/22 10:47:42;;;;;;;0.00;0.00;;;;;;;30.90;39.22;98642.34;5040114;28;20127;-88
2021/06/22 10:50:08;;;;;;;0.00;0.00;;;;;;;30.98;40.19;98643.75;5073201;28;20119;-88
2021/06/22 10:52:46;;;;;;;0.00;0.00;;;;;;;31.03;39.62;98642.47;5073180;28;20124;-86
2021/06/22 10:55:42;;;;;;;0.00;0.00;;;;;;;31.06;40.66;98625.84;5072914;28;20028;-87
2021/06/22 10:58:08;;;;;;;0.13;0.13;;;;;;;31.17;40.84;98630.41;5072732;28;20110;-88
2021/06/22 11:00:37;;;;;;;0.03;0.03;;;;;;;31.19;39.10;98614.16;5073302;28;20465;-90
2021/06/22 11:03:21;;;;;;;0.00;0.00;;;;;;;31.34;39.71;98620.19;5073079;28;20039;-87
2021/06/22 11:05:48;;;;;;;0.00;0.00;;;;;;;31.40;37.62;98616.47;5073503;28;20478;-86
2021/06/22 11:08:13;;;;;;;0.05;0.05;;;;;;;31.39;36.53;98612.16;5091077;28;20020;-85
2021/06/22 11:10:55;;;;;;;0.10;0.10;;;;;;;31.40;37.37;98610.19;5091230;28;20020;-85
2021/06/22 11:13:33;;;;;;;0.03;0.03;;;;;;;31.49;39.91;98606.84;5073248;28;20024;-87
2021/06/22 11:16:05;;;;;;;0.25;0.25;;;;;;;31.57;39.78;98605.47;5072733;28;20028;-86
2021/06/22 11:18:56;;;;;;;0.28;0.28;;;;;;;31.68;39.42;98608.78;5073083;28;20493;-86
2021/06/22 11:21:31;;;;;;;0.28;0.28;;;;;;;31.76;38.47;98601.88;5090817;28;20395;-87
2021/06/22 11:24:10;;;;;;;0.10;0.10;;;;;;;31.87;37.01;98598.06;5090919;28;20024;-85
2021/06/22 11:26:45;;;;;;;0.00;0.00;;;;;;;31.96;37.52;98587.19;5072742;28;20036;-87
2021/06/22 11:29:36;;;;;;;0.00;0.00;;;;;;;32.06;36.18;98586.13;5072647;28;20034;-85
2021/06/22 11:32:02;;;;;;;0.10;0.10;;;;;;;32.15;36.66;98587.53;5071843;28;20117;-85
2021/06/22 11:34:32;;;;;;;0.10;0.10;;;;;;;32.21;36.78;98586.59;5072761;28;20138;-86